sensor_id;sensor_type;location;lat;lon;timestamp;temperature;humidity
16485;DHT22;8353;47.856;12.344;2023-07-29T00:00:03;20.50;99.90
16485;DHT22;8353;47.856;12.344;2023-07-29T00:02:33;20.50;99.90
16485;DHT22;8353;47.856;12.344;2023-07-29T00:05:04;20.70;99.90
16485;DHT22;8353;47.856;12.344;2023-07-29T00:07:34;20.70;99.90
16485;DHT22;8353;47.856;12.344;2023-07-29T00:10:06;20.70;99.90
16485;DHT22;8353;47.856;12.344;2023-07-29T00:12:38;20.80;99.90
16485;DHT22;8353;47.856;12.344;2023-07-29T00:15:09;20.60;99.90
16485;DHT22;8353;47.856;12.344;2023-07-29T00:17:40;20.60;99.90
16485;DHT22;8353;47.856;12.344;2023-07-29T00:20:10;20.60;99.90
16485;DHT22;8353;47.856;12.344;2023-07-29T00:22:40;20.60;99.90
16485;DHT22;8353;47.856;12.344;2023-07-29T00:25:11;20.80;99.90
16485;DHT22;8353;47.856;12.344;2023-07-29T00:27:42;20.70;99.90
16485;DHT22;8353;47.856;12.344;2023-07-29T00:30:13;20.70;99.90
16485;DHT22;8353;47.856;12.344;2023-07-29T00:32:43;20.80;99.90
16485;DHT22;8353;47.856;12.344;2023-07-29T00:35:14;20.80;99.90
16485;DHT22;8353;47.856;12.344;2023-07-29T00:37:45;20.90;99.90
16485;DHT22;8353;47.856;12.344;2023-07-29T00:40:19;20.80;99.90
16485;DHT22;8353;47.856;12.344;2023-07-29T00:42:51;20.70;99.90
16485;DHT22;8353;47.856;12.344;2023-07-29T00:45:21;20.70;99.90
16485;DHT22;8353;47.856;12.344;2023-07-29T00:47:53;20.60;99.90
16485;DHT22;8353;47.856;12.344;2023-07-29T00:50:23;20.70;99.90
16485;DHT22;8353;47.856;12.344;2023-07-29T00:52:54;20.70;99.90
16485;DHT22;8353;47.856;12.344;2023-07-29T00:55:25;20.70;99.90
16485;DHT22;8353;47.856;12.344;2023-07-29T00:57:57;20.70;99.90
16485;DHT22;8353;47.856;12.344;2023-07-29T01:00:28;20.70;99.90
16485;DHT22;8353;47.856;12.344;2023-07-29T01:03:15;20.70;99.90
16485;DHT22;8353;47.856;12.344;2023-07-29T01:05:59;20.70;99.90
16485;DHT22;8353;47.856;12.344;2023-07-29T01:08:38;20.70;99.90
16485;DHT22;8353;47.856;12.344;2023-07-29T01:11:24;20.60;99.90
16485;DHT22;8353;47.856;12.344;2023-07-29T01:14:01;20.50;99.90
16485;DHT22;8353;47.856;12.344;2023-07-29T01:16:39;20.40;99.90
16485;DHT22;8353;47.856;12.344;2023-07-29T01:19:22;20.30;99.90
16485;DHT22;8353;47.856;12.344;2023-07-29T01:21:58;20.30;99.90
16485;DHT22;8353;47.856;12.344;2023-07-29T01:24:29;20.30;99.90
16485;DHT22;8353;47.856;12.344;2023-07-29T01:27:00;20.40;99.90
16485;DHT22;8353;47.856;12.344;2023-07-29T01:29:33;20.40;99.90
16485;DHT22;8353;47.856;12.344;2023-07-29T01:32:09;20.40;99.90
16485;DHT22;8353;47.856;12.344;2023-07-29T01:34:44;20.50;99.90
16485;DHT22;8353;47.856;12.344;2023-07-29T01:37:19;20.60;99.90
16485;DHT22;8353;47.856;12.344;2023-07-29T01:39:55;20.60;99.90
16485;DHT22;8353;47.856;12.344;2023-07-29T01:42:27;20.50;99.90
16485;DHT22;8353;47.856;12.344;2023-07-29T01:44:57;20.50;99.90
16485;DHT22;8353;47.856;12.344;2023-07-29T01:47:28;20.50;99.90
16485;DHT22;8353;47.856;12.344;2023-07-29T01:49:58;20.50;99.90
16485;DHT22;8353;47.856;12.344;2023-07-29T01:52:28;20.40;99.90
16485;DHT22;8353;47.856;12.344;2023-07-29T01:55:00;20.40;99.90
16485;DHT22;8353;47.856;12.344;2023-07-29T01:57:46;20.30;99.90
16485;DHT22;8353;47.856;12.344;2023-07-29T02:00:17;20.40;99.90
16485;DHT22;8353;47.856;12.344;2023-07-29T02:02:47;20.30;99.90
16485;DHT22;8353;47.856;12.344;2023-07-29T02:05:18;20.20;99.90
16485;DHT22;8353;47.856;12.344;2023-07-29T02:07:49;20.20;99.90
16485;DHT22;8353;47.856;12.344;2023-07-29T02:10:20;20.20;99.90
16485;DHT22;8353;47.856;12.344;2023-07-29T02:12:51;20.20;99.90
16485;DHT22;8353;47.856;12.344;2023-07-29T02:15:22;20.20;99.90
16485;DHT22;8353;47.856;12.344;2023-07-29T02:17:52;20.10;99.90
16485;DHT22;8353;47.856;12.344;2023-07-29T02:20:22;20.10;99.90
16485;DHT22;8353;47.856;12.344;2023-07-29T02:22:53;20.10;99.90
16485;DHT22;8353;47.856;12.344;2023-07-29T02:25:25;20.20;99.90
16485;DHT22;8353;47.856;12.344;2023-07-29T02:27:55;20.30;99.90
16485;DHT22;8353;47.856;12.344;2023-07-29T02:30:26;20.30;99.90
16485;DHT22;8353;47.856;12.344;2023-07-29T02:32:56;20.10;99.90
16485;DHT22;8353;47.856;12.344;2023-07-29T02:35:26;20.10;99.90
16485;DHT22;8353;47.856;12.344;2023-07-29T02:37:56;20.10;99.90
16485;DHT22;8353;47.856;12.344;2023-07-29T02:40:28;20.10;99.90
16485;DHT22;8353;47.856;12.344;2023-07-29T02:42:58;20.10;99.90
16485;DHT22;8353;47.856;12.344;2023-07-29T02:45:29;20.20;99.90
16485;DHT22;8353;47.856;12.344;2023-07-29T02:48:00;20.20;99.90
16485;DHT22;8353;47.856;12.344;2023-07-29T02:50:31;20.10;99.90
16485;DHT22;8353;47.856;12.344;2023-07-29T02:53:01;20.10;99.90
16485;DHT22;8353;47.856;12.344;2023-07-29T02:55:34;20.10;99.90
16485;DHT22;8353;47.856;12.344;2023-07-29T02:58:04;20.10;99.90
16485;DHT22;8353;47.856;12.344;2023-07-29T03:00:35;20.10;99.90
16485;DHT22;8353;47.856;12.344;2023-07-29T03:03:05;20.10;99.90
16485;DHT22;8353;47.856;12.344;2023-07-29T03:05:35;20.10;99.90
16485;DHT22;8353;47.856;12.344;2023-07-29T03:08:07;20.10;99.90
16485;DHT22;8353;47.856;12.344;2023-07-29T03:10:39;20.00;99.90
16485;DHT22;8353;47.856;12.344;2023-07-29T03:13:09;20.00;99.90
16485;DHT22;8353;47.856;12.344;2023-07-29T03:15:39;20.10;99.90
16485;DHT22;8353;47.856;12.344;2023-07-29T03:18:10;20.00;99.90
16485;DHT22;8353;47.856;12.344;2023-07-29T03:20:40;20.10;99.90
16485;DHT22;8353;47.856;12.344;2023-07-29T03:23:10;20.00;99.90
16485;DHT22;8353;47.856;12.344;2023-07-29T03:25:43;20.00;99.90
16485;DHT22;8353;47.856;12.344;2023-07-29T03:28:13;20.00;99.90
16485;DHT22;8353;47.856;12.344;2023-07-29T03:30:44;20.00;99.90
16485;DHT22;8353;47.856;12.344;2023-07-29T03:33:14;20.10;99.90
16485;DHT22;8353;47.856;12.344;2023-07-29T03:35:45;20.10;99.90
16485;DHT22;8353;47.856;12.344;2023-07-29T03:38:15;20.10;99.90
16485;DHT22;8353;47.856;12.344;2023-07-29T03:40:47;20.00;99.90
16485;DHT22;8353;47.856;12.344;2023-07-29T03:43:17;19.90;99.90
16485;DHT22;8353;47.856;12.344;2023-07-29T03:45:47;19.90;99.90
16485;DHT22;8353;47.856;12.344;2023-07-29T03:48:18;19.80;99.90
16485;DHT22;8353;47.856;12.344;2023-07-29T03:50:48;19.80;99.90
16485;DHT22;8353;47.856;12.344;2023-07-29T03:53:19;19.90;99.90
16485;DHT22;8353;47.856;12.344;2023-07-29T03:55:50;20.00;99.90
16485;DHT22;8353;47.856;12.344;2023-07-29T03:58:21;20.00;99.90
16485;DHT22;8353;47.856;12.344;2023-07-29T04:00:52;20.00;99.90
16485;DHT22;8353;47.856;12.344;2023-07-29T04:03:22;19.90;99.90
16485;DHT22;8353;47.856;12.344;2023-07-29T04:05:53;20.10;99.90
16485;DHT22;8353;47.856;12.344;2023-07-29T04:08:23;20.10;99.90
16485;DHT22;8353;47.856;12.344;2023-07-29T04:10:55;20.10;99.90
16485;DHT22;8353;47.856;12.344;2023-07-29T04:13:25;20.00;99.90
16485;DHT22;8353;47.856;12.344;2023-07-29T04:15:56;20.10;99.90
16485;DHT22;8353;47.856;12.344;2023-07-29T04:18:26;20.10;99.90
16485;DHT22;8353;47.856;12.344;2023-07-29T04:20:57;20.10;99.90
16485;DHT22;8353;47.856;12.344;2023-07-29T04:23:27;20.20;99.90
16485;DHT22;8353;47.856;12.344;2023-07-29T04:25:59;20.20;99.90
16485;DHT22;8353;47.856;12.344;2023-07-29T04:28:29;20.10;99.90
16485;DHT22;8353;47.856;12.344;2023-07-29T04:30:59;20.30;99.90
16485;DHT22;8353;47.856;12.344;2023-07-29T04:33:30;20.20;99.90
16485;DHT22;8353;47.856;12.344;2023-07-29T04:36:00;20.20;99.90
16485;DHT22;8353;47.856;12.344;2023-07-29T04:38:31;20.20;99.90
16485;DHT22;8353;47.856;12.344;2023-07-29T04:41:03;20.30;99.90
16485;DHT22;8353;47.856;12.344;2023-07-29T04:43:36;20.30;99.90
16485;DHT22;8353;47.856;12.344;2023-07-29T04:46:06;20.30;99.90
16485;DHT22;8353;47.856;12.344;2023-07-29T04:48:37;20.50;99.90
16485;DHT22;8353;47.856;12.344;2023-07-29T04:51:07;20.50;99.90
16485;DHT22;8353;47.856;12.344;2023-07-29T04:53:38;20.50;99.90
16485;DHT22;8353;47.856;12.344;2023-07-29T04:56:10;20.50;99.90
16485;DHT22;8353;47.856;12.344;2023-07-29T04:58:40;20.50;99.90
16485;DHT22;8353;47.856;12.344;2023-07-29T05:01:10;20.50;99.90
16485;DHT22;8353;47.856;12.344;2023-07-29T05:03:41;20.50;99.90
16485;DHT22;8353;47.856;12.344;2023-07-29T05:06:11;20.50;99.90
16485;DHT22;8353;47.856;12.344;2023-07-29T05:08:42;20.50;99.90
16485;DHT22;8353;47.856;12.344;2023-07-29T05:11:14;20.70;99.90
16485;DHT22;8353;47.856;12.344;2023-07-29T05:13:43;20.80;99.90
16485;DHT22;8353;47.856;12.344;2023-07-29T05:16:14;20.80;99.90
16485;DHT22;8353;47.856;12.344;2023-07-29T05:18:44;20.90;99.90
16485;DHT22;8353;47.856;12.344;2023-07-29T05:21:15;20.90;99.90
16485;DHT22;8353;47.856;12.344;2023-07-29T05:23:45;20.90;99.90
16485;DHT22;8353;47.856;12.344;2023-07-29T05:26:17;20.90;99.90
16485;DHT22;8353;47.856;12.344;2023-07-29T05:28:47;21.00;99.90
16485;DHT22;8353;47.856;12.344;2023-07-29T05:31:18;21.00;99.90
16485;DHT22;8353;47.856;12.344;2023-07-29T05:33:48;21.10;99.90
16485;DHT22;8353;47.856;12.344;2023-07-29T05:36:19;21.00;99.90
16485;DHT22;8353;47.856;12.344;2023-07-29T05:38:50;21.10;99.90
16485;DHT22;8353;47.856;12.344;2023-07-29T05:41:23;21.10;99.90
16485;DHT22;8353;47.856;12.344;2023-07-29T05:43:55;21.10;99.90
16485;DHT22;8353;47.856;12.344;2023-07-29T05:46:25;21.30;99.90
16485;DHT22;8353;47.856;12.344;2023-07-29T05:48:56;21.40;99.90
16485;DHT22;8353;47.856;12.344;2023-07-29T05:51:26;21.50;99.90
16485;DHT22;8353;47.856;12.344;2023-07-29T05:53:56;21.60;99.90
16485;DHT22;8353;47.856;12.344;2023-07-29T05:56:28;21.60;99.90
16485;DHT22;8353;47.856;12.344;2023-07-29T05:58:59;21.80;99.90
16485;DHT22;8353;47.856;12.344;2023-07-29T06:01:29;21.80;99.90
16485;DHT22;8353;47.856;12.344;2023-07-29T06:04:00;21.90;99.90
16485;DHT22;8353;47.856;12.344;2023-07-29T06:06:31;21.90;99.90
16485;DHT22;8353;47.856;12.344;2023-07-29T06:09:01;22.00;99.90
16485;DHT22;8353;47.856;12.344;2023-07-29T06:11:33;22.10;99.90
16485;DHT22;8353;47.856;12.344;2023-07-29T06:14:03;22.20;99.90
16485;DHT22;8353;47.856;12.344;2023-07-29T06:16:34;22.20;99.90
16485;DHT22;8353;47.856;12.344;2023-07-29T06:19:04;22.20;99.90
16485;DHT22;8353;47.856;12.344;2023-07-29T06:21:35;22.20;99.90
16485;DHT22;8353;47.856;12.344;2023-07-29T06:24:05;22.20;99.90
16485;DHT22;8353;47.856;12.344;2023-07-29T06:26:37;22.30;99.90
16485;DHT22;8353;47.856;12.344;2023-07-29T06:29:08;22.30;99.90
16485;DHT22;8353;47.856;12.344;2023-07-29T06:31:38;22.40;99.90
16485;DHT22;8353;47.856;12.344;2023-07-29T06:34:08;22.50;99.90
16485;DHT22;8353;47.856;12.344;2023-07-29T06:36:39;22.60;99.90
16485;DHT22;8353;47.856;12.344;2023-07-29T06:39:10;22.80;99.90
16485;DHT22;8353;47.856;12.344;2023-07-29T06:41:42;22.80;99.90
16485;DHT22;8353;47.856;12.344;2023-07-29T06:44:12;22.90;99.90
16485;DHT22;8353;47.856;12.344;2023-07-29T06:46:43;22.90;99.90
16485;DHT22;8353;47.856;12.344;2023-07-29T06:49:13;23.00;99.90
16485;DHT22;8353;47.856;12.344;2023-07-29T06:51:44;23.00;99.90
16485;DHT22;8353;47.856;12.344;2023-07-29T06:54:15;22.90;99.90
16485;DHT22;8353;47.856;12.344;2023-07-29T06:56:47;22.90;99.90
16485;DHT22;8353;47.856;12.344;2023-07-29T06:59:17;22.90;99.90
16485;DHT22;8353;47.856;12.344;2023-07-29T07:01:47;22.90;99.90
16485;DHT22;8353;47.856;12.344;2023-07-29T07:04:18;22.80;99.90
16485;DHT22;8353;47.856;12.344;2023-07-29T07:06:48;22.70;99.90
16485;DHT22;8353;47.856;12.344;2023-07-29T07:09:19;22.60;99.90
16485;DHT22;8353;47.856;12.344;2023-07-29T07:11:51;22.50;99.90
16485;DHT22;8353;47.856;12.344;2023-07-29T07:14:22;22.40;99.90
16485;DHT22;8353;47.856;12.344;2023-07-29T07:16:52;22.30;99.90
16485;DHT22;8353;47.856;12.344;2023-07-29T07:19:23;22.30;99.90
16485;DHT22;8353;47.856;12.344;2023-07-29T07:21:53;22.20;99.90
16485;DHT22;8353;47.856;12.344;2023-07-29T07:24:24;22.00;99.90
16485;DHT22;8353;47.856;12.344;2023-07-29T07:26:55;22.00;99.90
16485;DHT22;8353;47.856;12.344;2023-07-29T07:29:26;21.90;99.90
16485;DHT22;8353;47.856;12.344;2023-07-29T07:31:56;21.80;99.90
16485;DHT22;8353;47.856;12.344;2023-07-29T07:34:27;21.80;99.90
16485;DHT22;8353;47.856;12.344;2023-07-29T07:36:57;21.80;99.90
16485;DHT22;8353;47.856;12.344;2023-07-29T07:39:27;21.90;99.90
16485;DHT22;8353;47.856;12.344;2023-07-29T07:41:59;21.90;99.90
16485;DHT22;8353;47.856;12.344;2023-07-29T07:44:30;22.00;99.90
16485;DHT22;8353;47.856;12.344;2023-07-29T07:47:01;22.00;99.90
16485;DHT22;8353;47.856;12.344;2023-07-29T07:49:31;22.00;99.90
16485;DHT22;8353;47.856;12.344;2023-07-29T07:52:02;22.00;99.90
16485;DHT22;8353;47.856;12.344;2023-07-29T07:54:33;22.10;99.90
16485;DHT22;8353;47.856;12.344;2023-07-29T07:57:05;22.10;99.90
16485;DHT22;8353;47.856;12.344;2023-07-29T07:59:36;22.10;99.90
16485;DHT22;8353;47.856;12.344;2023-07-29T08:02:06;22.10;99.90
16485;DHT22;8353;47.856;12.344;2023-07-29T08:04:37;22.10;99.90
16485;DHT22;8353;47.856;12.344;2023-07-29T08:07:07;22.00;99.90
16485;DHT22;8353;47.856;12.344;2023-07-29T08:09:37;22.10;99.90
16485;DHT22;8353;47.856;12.344;2023-07-29T08:12:09;22.00;99.90
16485;DHT22;8353;47.856;12.344;2023-07-29T08:14:39;21.90;99.90
16485;DHT22;8353;47.856;12.344;2023-07-29T08:17:09;21.90;99.90
16485;DHT22;8353;47.856;12.344;2023-07-29T08:19:40;22.10;99.90
16485;DHT22;8353;47.856;12.344;2023-07-29T08:22:10;22.20;99.90
16485;DHT22;8353;47.856;12.344;2023-07-29T08:24:41;22.20;99.90
16485;DHT22;8353;47.856;12.344;2023-07-29T08:27:12;22.30;99.90
16485;DHT22;8353;47.856;12.344;2023-07-29T08:29:43;22.30;99.90
16485;DHT22;8353;47.856;12.344;2023-07-29T08:32:13;22.40;99.90
16485;DHT22;8353;47.856;12.344;2023-07-29T08:34:43;22.40;99.90
16485;DHT22;8353;47.856;12.344;2023-07-29T08:37:14;22.50;99.90
16485;DHT22;8353;47.856;12.344;2023-07-29T08:39:45;22.60;99.90
16485;DHT22;8353;47.856;12.344;2023-07-29T08:42:19;22.70;99.90
16485;DHT22;8353;47.856;12.344;2023-07-29T08:44:51;22.70;99.90
16485;DHT22;8353;47.856;12.344;2023-07-29T08:47:24;22.90;99.90
16485;DHT22;8353;47.856;12.344;2023-07-29T08:49:58;22.90;99.90
16485;DHT22;8353;47.856;12.344;2023-07-29T08:52:29;23.10;99.90
16485;DHT22;8353;47.856;12.344;2023-07-29T08:55:00;23.20;99.90
16485;DHT22;8353;47.856;12.344;2023-07-29T08:57:33;23.30;99.90
16485;DHT22;8353;47.856;12.344;2023-07-29T09:00:05;23.30;99.90
16485;DHT22;8353;47.856;12.344;2023-07-29T09:02:36;23.30;99.90
16485;DHT22;8353;47.856;12.344;2023-07-29T09:05:08;23.40;99.90
16485;DHT22;8353;47.856;12.344;2023-07-29T09:07:38;23.20;99.90
16485;DHT22;8353;47.856;12.344;2023-07-29T09:10:09;23.10;99.90
16485;DHT22;8353;47.856;12.344;2023-07-29T09:12:42;23.20;99.90
16485;DHT22;8353;47.856;12.344;2023-07-29T09:15:12;23.20;99.90
16485;DHT22;8353;47.856;12.344;2023-07-29T09:17:43;23.20;99.90
16485;DHT22;8353;47.856;12.344;2023-07-29T09:20:13;23.30;99.90
16485;DHT22;8353;47.856;12.344;2023-07-29T09:22:44;23.20;99.90
16485;DHT22;8353;47.856;12.344;2023-07-29T09:25:14;23.30;99.90
16485;DHT22;8353;47.856;12.344;2023-07-29T09:27:47;23.40;99.90
16485;DHT22;8353;47.856;12.344;2023-07-29T09:30:18;23.40;99.90
16485;DHT22;8353;47.856;12.344;2023-07-29T09:32:54;23.50;99.90
16485;DHT22;8353;47.856;12.344;2023-07-29T09:35:27;23.60;99.90
16485;DHT22;8353;47.856;12.344;2023-07-29T09:37:58;23.60;99.90
16485;DHT22;8353;47.856;12.344;2023-07-29T09:40:34;23.60;99.90
16485;DHT22;8353;47.856;12.344;2023-07-29T09:43:07;23.60;99.90
16485;DHT22;8353;47.856;12.344;2023-07-29T09:45:38;23.70;99.90
16485;DHT22;8353;47.856;12.344;2023-07-29T09:48:09;23.60;99.90
16485;DHT22;8353;47.856;12.344;2023-07-29T09:50:41;23.70;99.90
16485;DHT22;8353;47.856;12.344;2023-07-29T09:53:11;23.70;99.90
16485;DHT22;8353;47.856;12.344;2023-07-29T09:55:46;23.70;99.90
16485;DHT22;8353;47.856;12.344;2023-07-29T09:58:27;23.70;99.90
16485;DHT22;8353;47.856;12.344;2023-07-29T10:00:57;23.60;99.90
16485;DHT22;8353;47.856;12.344;2023-07-29T10:03:29;23.80;99.90
16485;DHT22;8353;47.856;12.344;2023-07-29T10:06:00;24.00;99.90
16485;DHT22;8353;47.856;12.344;2023-07-29T10:08:32;24.10;99.90
16485;DHT22;8353;47.856;12.344;2023-07-29T10:11:05;24.20;99.90
16485;DHT22;8353;47.856;12.344;2023-07-29T10:13:38;24.20;99.90
16485;DHT22;8353;47.856;12.344;2023-07-29T10:16:10;24.50;99.90
16485;DHT22;8353;47.856;12.344;2023-07-29T10:18:42;24.60;99.90
16485;DHT22;8353;47.856;12.344;2023-07-29T10:21:14;24.70;99.90
16485;DHT22;8353;47.856;12.344;2023-07-29T10:23:47;24.90;99.90
16485;DHT22;8353;47.856;12.344;2023-07-29T10:26:20;25.00;99.90
16485;DHT22;8353;47.856;12.344;2023-07-29T10:28:54;25.20;99.90
16485;DHT22;8353;47.856;12.344;2023-07-29T10:31:29;25.40;99.90
16485;DHT22;8353;47.856;12.344;2023-07-29T10:33:59;25.70;99.90
16485;DHT22;8353;47.856;12.344;2023-07-29T10:36:30;26.00;99.90
16485;DHT22;8353;47.856;12.344;2023-07-29T10:39:00;26.10;99.90
16485;DHT22;8353;47.856;12.344;2023-07-29T10:41:55;26.40;99.90
16485;DHT22;8353;47.856;12.344;2023-07-29T10:44:49;26.60;99.90
16485;DHT22;8353;47.856;12.344;2023-07-29T10:47:22;26.90;99.90
16485;DHT22;8353;47.856;12.344;2023-07-29T10:49:55;26.90;99.90
16485;DHT22;8353;47.856;12.344;2023-07-29T10:52:30;27.10;99.90
16485;DHT22;8353;47.856;12.344;2023-07-29T10:55:01;27.40;99.90
16485;DHT22;8353;47.856;12.344;2023-07-29T10:57:34;27.40;99.90
16485;DHT22;8353;47.856;12.344;2023-07-29T11:00:07;27.50;99.90
16485;DHT22;8353;47.856;12.344;2023-07-29T11:02:38;27.60;99.90
16485;DHT22;8353;47.856;12.344;2023-07-29T11:05:17;27.80;99.90
16485;DHT22;8353;47.856;12.344;2023-07-29T11:07:48;27.80;99.90
16485;DHT22;8353;47.856;12.344;2023-07-29T11:10:19;27.90;99.90
16485;DHT22;8353;47.856;12.344;2023-07-29T11:12:50;28.00;99.90
16485;DHT22;8353;47.856;12.344;2023-07-29T11:15:24;28.10;99.90
16485;DHT22;8353;47.856;12.344;2023-07-29T11:17:56;28.30;99.90
16485;DHT22;8353;47.856;12.344;2023-07-29T11:20:28;28.20;99.90
16485;DHT22;8353;47.856;12.344;2023-07-29T11:23:00;28.20;99.90
16485;DHT22;8353;47.856;12.344;2023-07-29T11:25:32;28.20;99.90
16485;DHT22;8353;47.856;12.344;2023-07-29T11:28:04;27.90;99.90
16485;DHT22;8353;47.856;12.344;2023-07-29T11:30:39;27.80;99.90
16485;DHT22;8353;47.856;12.344;2023-07-29T11:33:10;27.90;99.90
16485;DHT22;8353;47.856;12.344;2023-07-29T11:35:42;28.00;99.90
16485;DHT22;8353;47.856;12.344;2023-07-29T11:38:15;28.20;99.90
16485;DHT22;8353;47.856;12.344;2023-07-29T11:40:57;28.30;99.90
16485;DHT22;8353;47.856;12.344;2023-07-29T11:43:28;28.50;99.90
16485;DHT22;8353;47.856;12.344;2023-07-29T11:46:02;28.50;99.90
16485;DHT22;8353;47.856;12.344;2023-07-29T11:48:33;28.60;99.90
16485;DHT22;8353;47.856;12.344;2023-07-29T11:51:03;28.60;99.90
16485;DHT22;8353;47.856;12.344;2023-07-29T11:53:34;28.40;99.90
16485;DHT22;8353;47.856;12.344;2023-07-29T11:56:05;28.60;99.90
16485;DHT22;8353;47.856;12.344;2023-07-29T11:58:36;28.60;99.90
16485;DHT22;8353;47.856;12.344;2023-07-29T12:01:08;28.80;99.90
16485;DHT22;8353;47.856;12.344;2023-07-29T12:03:40;29.00;99.90
16485;DHT22;8353;47.856;12.344;2023-07-29T12:06:11;29.10;99.90
16485;DHT22;8353;47.856;12.344;2023-07-29T12:08:41;29.10;99.90
16485;DHT22;8353;47.856;12.344;2023-07-29T12:11:13;29.10;99.90
16485;DHT22;8353;47.856;12.344;2023-07-29T12:13:44;29.10;99.90
16485;DHT22;8353;47.856;12.344;2023-07-29T12:16:17;29.10;99.90
16485;DHT22;8353;47.856;12.344;2023-07-29T12:18:50;29.10;99.90
16485;DHT22;8353;47.856;12.344;2023-07-29T12:21:20;29.10;99.90
16485;DHT22;8353;47.856;12.344;2023-07-29T12:23:51;29.00;99.90
16485;DHT22;8353;47.856;12.344;2023-07-29T12:26:27;29.00;99.90
16485;DHT22;8353;47.856;12.344;2023-07-29T12:28:57;29.10;99.90
16485;DHT22;8353;47.856;12.344;2023-07-29T12:31:37;29.10;99.90
16485;DHT22;8353;47.856;12.344;2023-07-29T12:34:08;29.10;99.90
16485;DHT22;8353;47.856;12.344;2023-07-29T12:36:43;28.90;99.90
16485;DHT22;8353;47.856;12.344;2023-07-29T12:39:18;28.90;99.90
16485;DHT22;8353;47.856;12.344;2023-07-29T12:41:52;29.00;99.90
16485;DHT22;8353;47.856;12.344;2023-07-29T12:44:23;28.90;99.90
16485;DHT22;8353;47.856;12.344;2023-07-29T12:46:55;29.00;99.90
16485;DHT22;8353;47.856;12.344;2023-07-29T12:49:25;29.00;99.90
16485;DHT22;8353;47.856;12.344;2023-07-29T12:51:57;29.50;99.90
16485;DHT22;8353;47.856;12.344;2023-07-29T12:54:28;29.70;99.90
16485;DHT22;8353;47.856;12.344;2023-07-29T12:56:58;29.90;99.90
16485;DHT22;8353;47.856;12.344;2023-07-29T12:59:28;30.00;99.90
16485;DHT22;8353;47.856;12.344;2023-07-29T13:02:01;29.90;99.90
16485;DHT22;8353;47.856;12.344;2023-07-29T13:04:32;30.00;99.90
16485;DHT22;8353;47.856;12.344;2023-07-29T13:07:02;30.20;99.90
16485;DHT22;8353;47.856;12.344;2023-07-29T13:09:34;30.00;99.90
16485;DHT22;8353;47.856;12.344;2023-07-29T13:12:05;30.10;99.90
16485;DHT22;8353;47.856;12.344;2023-07-29T13:14:36;30.10;99.90
16485;DHT22;8353;47.856;12.344;2023-07-29T13:17:08;30.00;99.90
16485;DHT22;8353;47.856;12.344;2023-07-29T13:19:38;30.20;99.90
16485;DHT22;8353;47.856;12.344;2023-07-29T13:22:09;30.10;99.90
16485;DHT22;8353;47.856;12.344;2023-07-29T13:24:39;30.00;99.90
16485;DHT22;8353;47.856;12.344;2023-07-29T13:27:09;30.10;99.90
16485;DHT22;8353;47.856;12.344;2023-07-29T13:29:40;30.30;99.90
16485;DHT22;8353;47.856;12.344;2023-07-29T13:32:12;30.40;99.90
16485;DHT22;8353;47.856;12.344;2023-07-29T13:34:42;30.70;99.90
16485;DHT22;8353;47.856;12.344;2023-07-29T13:37:13;30.60;99.90
16485;DHT22;8353;47.856;12.344;2023-07-29T13:39:43;30.40;99.90
16485;DHT22;8353;47.856;12.344;2023-07-29T13:42:13;30.40;99.90
16485;DHT22;8353;47.856;12.344;2023-07-29T13:44:44;30.30;99.90
16485;DHT22;8353;47.856;12.344;2023-07-29T13:47:16;30.10;99.90
16485;DHT22;8353;47.856;12.344;2023-07-29T13:49:46;30.20;99.90
16485;DHT22;8353;47.856;12.344;2023-07-29T13:52:17;30.00;99.90
16485;DHT22;8353;47.856;12.344;2023-07-29T13:54:47;30.10;99.90
16485;DHT22;8353;47.856;12.344;2023-07-29T13:57:18;30.00;99.90
16485;DHT22;8353;47.856;12.344;2023-07-29T13:59:48;30.00;99.90
16485;DHT22;8353;47.856;12.344;2023-07-29T14:02:20;30.10;99.90
16485;DHT22;8353;47.856;12.344;2023-07-29T14:04:50;30.30;99.90
16485;DHT22;8353;47.856;12.344;2023-07-29T14:07:20;30.20;99.90
16485;DHT22;8353;47.856;12.344;2023-07-29T14:09:51;30.00;99.90
16485;DHT22;8353;47.856;12.344;2023-07-29T14:12:21;29.80;99.90
16485;DHT22;8353;47.856;12.344;2023-07-29T14:14:52;29.70;99.90
16485;DHT22;8353;47.856;12.344;2023-07-29T14:17:24;29.40;99.90
16485;DHT22;8353;47.856;12.344;2023-07-29T14:19:55;28.90;99.90
16485;DHT22;8353;47.856;12.344;2023-07-29T14:22:25;28.30;99.90
16485;DHT22;8353;47.856;12.344;2023-07-29T14:24:55;27.90;99.90
16485;DHT22;8353;47.856;12.344;2023-07-29T14:27:25;27.60;99.90
16485;DHT22;8353;47.856;12.344;2023-07-29T14:29:55;27.40;99.90
16485;DHT22;8353;47.856;12.344;2023-07-29T14:32:27;27.10;99.90
16485;DHT22;8353;47.856;12.344;2023-07-29T14:34:57;27.10;99.90
16485;DHT22;8353;47.856;12.344;2023-07-29T14:37:32;27.20;99.90
16485;DHT22;8353;47.856;12.344;2023-07-29T14:40:04;27.20;99.90
16485;DHT22;8353;47.856;12.344;2023-07-29T14:42:34;27.30;99.90
16485;DHT22;8353;47.856;12.344;2023-07-29T14:45:06;27.00;99.90
16485;DHT22;8353;47.856;12.344;2023-07-29T14:47:39;27.00;99.90
16485;DHT22;8353;47.856;12.344;2023-07-29T14:50:10;26.90;99.90
16485;DHT22;8353;47.856;12.344;2023-07-29T14:52:40;26.60;99.90
16485;DHT22;8353;47.856;12.344;2023-07-29T14:55:11;26.50;99.90
16485;DHT22;8353;47.856;12.344;2023-07-29T14:57:41;26.60;99.90
16485;DHT22;8353;47.856;12.344;2023-07-29T15:00:12;26.70;99.90
16485;DHT22;8353;47.856;12.344;2023-07-29T15:02:46;26.60;99.90
16485;DHT22;8353;47.856;12.344;2023-07-29T15:05:16;26.80;99.90
16485;DHT22;8353;47.856;12.344;2023-07-29T15:07:47;26.90;99.90
16485;DHT22;8353;47.856;12.344;2023-07-29T15:10:17;26.60;99.90
16485;DHT22;8353;47.856;12.344;2023-07-29T15:12:48;26.10;99.90
16485;DHT22;8353;47.856;12.344;2023-07-29T15:15:18;25.90;99.90
16485;DHT22;8353;47.856;12.344;2023-07-29T15:17:50;25.50;99.90
16485;DHT22;8353;47.856;12.344;2023-07-29T15:20:21;25.30;99.90
16485;DHT22;8353;47.856;12.344;2023-07-29T15:22:52;25.10;99.90
16485;DHT22;8353;47.856;12.344;2023-07-29T15:25:22;25.20;99.90
16485;DHT22;8353;47.856;12.344;2023-07-29T15:27:53;25.20;99.90
16485;DHT22;8353;47.856;12.344;2023-07-29T15:30:24;25.20;99.90
16485;DHT22;8353;47.856;12.344;2023-07-29T15:32:56;25.10;99.90
16485;DHT22;8353;47.856;12.344;2023-07-29T15:35:26;25.10;99.90
16485;DHT22;8353;47.856;12.344;2023-07-29T15:37:56;25.00;99.90
16485;DHT22;8353;47.856;12.344;2023-07-29T15:40:27;24.30;99.90
16485;DHT22;8353;47.856;12.344;2023-07-29T15:42:57;23.60;99.90
16485;DHT22;8353;47.856;12.344;2023-07-29T15:45:28;23.10;99.90
16485;DHT22;8353;47.856;12.344;2023-07-29T15:48:00;23.00;99.90
16485;DHT22;8353;47.856;12.344;2023-07-29T15:50:31;23.20;99.90
16485;DHT22;8353;47.856;12.344;2023-07-29T15:53:01;23.50;99.90
16485;DHT22;8353;47.856;12.344;2023-07-29T15:55:33;23.50;99.90